createdAt,value
2022-09-25T00:00:28.783Z,17.28
2022-09-25T00:15:20.805Z,17.14
2022-09-25T00:30:11.959Z,17.01
2022-09-25T00:45:06.589Z,15.74
2022-09-25T01:14:51.358Z,17.84
2022-09-25T01:29:48.718Z,17.79
2022-09-25T01:44:44.818Z,20.34
2022-09-25T01:59:49.390Z,18.46
2022-09-25T02:14:49.058Z,18.82
2022-09-25T02:29:43.070Z,18.24
2022-09-25T02:44:40.992Z,16.79
2022-09-25T02:59:36.522Z,18.33
2022-09-25T03:14:28.193Z,17.84
2022-09-25T03:29:19.798Z,20.43
2022-09-25T03:44:11.025Z,22.18
2022-09-25T03:59:02.517Z,21.10
2022-09-25T04:13:54.394Z,24.12
2022-09-25T04:28:46.248Z,22.44
2022-09-25T04:43:37.732Z,22.67
2022-09-25T04:58:29.176Z,23.79
2022-09-25T05:13:20.028Z,20.72
2022-09-25T05:28:11.778Z,23.06
2022-09-25T05:43:03.577Z,19.79
2022-09-25T05:57:55.603Z,19.64
2022-09-25T06:12:48.216Z,18.94
2022-09-25T06:27:39.457Z,16.69
2022-09-25T06:42:31.730Z,16.19
2022-09-25T06:57:23.407Z,14.49
2022-09-25T07:12:14.699Z,15.50
2022-09-25T07:27:05.744Z,15.78
2022-09-25T07:41:58.012Z,16.74
2022-09-25T07:56:50.444Z,14.07
2022-09-25T08:11:41.980Z,15.07
2022-09-25T08:26:32.849Z,15.24
2022-09-25T08:41:28.155Z,14.22
2022-09-25T08:56:22.698Z,16.36
2022-09-25T09:11:17.372Z,15.83
2022-09-25T09:26:12.538Z,15.32
2022-09-25T09:41:16.572Z,14.77
2022-09-25T09:56:12.867Z,11.61
2022-09-25T10:11:04.521Z,13.11
2022-09-25T10:25:56.240Z,13.01
2022-09-25T10:40:46.069Z,9.39
2022-09-25T10:55:38.120Z,9.72
2022-09-25T11:10:32.177Z,10.39
2022-09-25T11:25:32.252Z,8.46
2022-09-25T11:40:55.141Z,5.24
2022-09-25T11:56:21.624Z,5.51
2022-09-25T12:11:41.435Z,5.70
2022-09-25T12:26:42.358Z,6.60
2022-09-25T12:41:40.365Z,5.87
2022-09-25T12:56:47.031Z,5.56
2022-09-25T13:11:46.375Z,6.48
2022-09-25T13:26:46.626Z,5.63
2022-09-25T13:41:54.272Z,4.03
2022-09-25T13:57:02.278Z,3.99
2022-09-25T14:11:55.494Z,5.01
2022-09-25T14:26:47.014Z,5.00
2022-09-25T14:41:43.479Z,3.11
2022-09-25T14:56:38.882Z,2.67
2022-09-25T15:11:38.696Z,4.06
2022-09-25T15:26:33.691Z,10.23
2022-09-25T15:41:23.839Z,12.81
2022-09-25T16:11:29.765Z,10.08
2022-09-25T16:26:21.545Z,7.17
2022-09-25T16:41:11.958Z,8.22
2022-09-25T16:56:03.000Z,7.72
2022-09-25T17:10:53.965Z,8.61
2022-09-25T17:25:45.354Z,8.43
2022-09-25T17:40:37.765Z,7.10
2022-09-25T17:55:28.884Z,5.69
2022-09-25T18:10:20.491Z,6.68
2022-09-25T18:25:12.372Z,8.66
2022-09-25T18:40:04.098Z,6.37
2022-09-25T18:54:55.148Z,11.59
2022-09-25T19:09:46.668Z,10.67
2022-09-25T19:24:38.009Z,10.27
2022-09-25T19:39:29.713Z,9.08
2022-09-25T19:54:21.116Z,7.27
2022-09-25T20:09:12.237Z,7.40
2022-09-25T20:24:03.098Z,8.80
2022-09-25T20:38:54.086Z,11.00
2022-09-25T20:53:44.999Z,7.54
2022-09-25T21:08:37.326Z,10.78
2022-09-25T21:23:32.226Z,9.19
2022-09-25T21:38:25.347Z,10.74
2022-09-25T21:53:15.341Z,12.42
2022-09-25T22:08:06.648Z,13.59
2022-09-25T22:22:57.495Z,12.50
2022-09-25T22:37:48.825Z,14.70
2022-09-25T22:52:39.811Z,14.69
2022-09-25T23:07:30.744Z,14.80
2022-09-25T23:22:21.389Z,17.84
2022-09-25T23:37:12.693Z,15.79
2022-09-25T23:52:04.115Z,19.46
